Date,TemperatureHighF,TemperatureAvgF,TemperatureLowF,DewpointHighF,DewpointAvgF,DewpointLowF,HumidityHigh,HumidityAvg,HumidityLow,PressureMaxIn,PressureMinIn,WindSpeedMaxMPH,WindSpeedAvgMPH,GustSpeedMaxMPH,PrecipitationSumIn
2013-1-1,38.0,34.1,26.0,32.6,26.5,15.9,92,74,59,30.03,29.88,21,5,21,0.01
2013-1-2,77.3,26.6,24.0,19.2,17.2,0.0,72,67,60,30.20,30.00,26,4,26,0.00
2013-1-3,34.0,26.4,18.0,23.9,17.3,14.0,88,69,53,30.20,30.07,20,4,22,0.00
2013-1-4,36.0,32.7,30.0,25.9,23.1,20.3,82,67,60,30.10,29.99,31,11,33,0.00
2013-1-5,38.0,32.4,29.0,25.8,23.6,20.3,84,70,60,30.35,30.07,24,6,25,0.00
2013-1-6,41.0,33.7,29.0,31.8,27.3,24.8,87,78,60,30.18,29.97,16,3,17,0.00
2013-1-7,39.0,37.9,31.0,32.1,30.6,26.2,83,75,72,30.37,30.09,21,6,22,0.00
2013-1-8,46.0,33.9,24.0,31.0,27.7,23.3,99,80,53,30.38,30.32,12,2,13,0.00
2013-1-9,45.0,31.8,25.0,37.7,29.4,24.0,98,92,61,30.37,30.14,20,3,22,0.00
2013-1-10,46.0,40.0,35.0,30.8,28.7,26.7,83,64,52,30.56,30.30,19,5,19,0.00
2013-1-11,44.0,39.2,34.0,40.0,34.0,28.4,100,83,61,30.49,30.09,17,3,17,0.29
2013-1-12,45.0,40.8,38.0,45.0,40.8,38.0,100,100,100,30.17,30.09,10,2,10,0.00
2013-1-13,78.4,43.6,40.0,52.0,43.4,0.0,100,100,97,30.12,29.96,11,3,11,0.00
2013-1-14,51.0,46.9,38.0,51.0,39.8,27.9,100,78,52,30.31,29.90,22,7,27,0.11
2013-1-15,38.0,34.9,31.0,30.8,26.7,24.9,97,72,64,30.37,30.18,12,4,13,0.01
2013-1-16,80.3,31.9,30.0,35.0,31.9,0.0,100,100,98,30.18,29.87,11,4,12,0.32
2013-1-17,39.0,35.8,33.0,35.0,31.7,29.3,100,85,73,30.11,29.94,21,4,22,0.00
2013-1-18,33.0,27.0,22.0,30.4,15.0,8.5,90,61,45,30.44,30.00,29,7,29,0.00
2013-1-19,51.0,39.6,26.0,29.8,23.2,13.5,81,53,36,30.31,29.82,28,6,30,0.00
2013-1-20,78.0,41.4,25.0,31.2,23.6,0.0,60,49,32,30.08,29.69,44,12,46,0.00
2013-1-21,28.0,24.9,21.0,25.8,16.3,7.8,99,70,56,30.08,29.86,21,5,24,0.00
2013-1-22,21.0,14.1,9.0,8.9,1.3,-5.3,76,57,43,30.21,29.89,40,11,43,0.00
2013-1-23,78.6,11.2,8.0,7.2,1.7,-2.0,77,65,47,30.24,30.12,32,5,32,0.00
2013-1-24,23.0,15.7,10.0,11.1,5.5,0.3,93,66,39,30.46,30.08,34,7,34,0.00
2013-1-25,19.0,14.9,11.0,16.3,8.7,2.1,94,77,60,30.46,30.03,14,3,14,0.00
2013-1-26,26.0,19.3,13.0,15.6,11.8,7.9,95,74,53,30.38,30.05,18,4,20,0.03
2013-1-27,78.1,19.0,12.0,18.9,12.9,0.0,91,78,51,30.55,30.38,18,2,19,0.00
2013-1-28,35.0,29.9,23.0,35.0,28.4,17.2,100,94,78,30.45,30.01,11,3,11,0.32
2013-1-29,46.0,38.8,34.0,45.0,38.7,34.0,100,100,97,30.12,29.96,16,2,17,0.03
2013-1-30,78.8,48.5,39.0,60.4,48.0,0.0,100,99,85,29.96,29.22,36,5,36,0.62
2013-1-31,56.0,37.3,26.0,56.0,28.0,13.0,100,70,46,29.79,29.09,52,15,52,0.44
2013-2-1,27.0,23.6,19.0,23.0,12.7,7.1,92,63,47,30.27,29.76,45,12,49,0.00
2013-2-2,23.0,19.2,14.0,21.3,11.1,5.7,98,71,55,30.28,29.99,22,6,23,0.00
2013-2-3,77.0,23.5,21.0,26.2,21.1,0.0,100,91,64,29.99,29.77,30,4,31,0.00
2013-2-4,29.0,24.1,20.0,25.2,14.1,7.5,96,66,51,30.00,29.88,34,8,34,0.00
2013-2-5,33.0,29.0,25.0,31.2,27.3,24.0,99,93,83,29.93,29.83,10,3,11,0.02
2013-2-6,37.0,30.9,26.0,31.0,24.3,13.1,100,79,43,30.33,29.90,27,6,28,0.00
2013-2-7,35.0,28.6,21.0,22.3,17.5,14.3,84,64,48,30.44,30.22,23,5,23,0.00
2013-2-8,40.0,34.9,28.0,36.0,32.2,22.3,100,90,67,30.23,29.74,38,6,39,0.22
2013-2-9,30.0,24.5,21.0,24.9,17.2,14.6,92,74,60,30.39,29.88,34,12,34,0.00
2013-2-10,39.0,23.3,11.0,21.5,15.2,10.3,98,74,36,30.46,30.18,19,3,21,0.00
2013-2-11,44.0,39.4,35.0,42.1,35.4,18.6,100,87,45,30.19,29.66,39,6,39,0.07
2013-2-12,41.0,37.6,32.0,28.8,26.0,23.7,78,63,57,30.00,29.77,34,10,39,0.00
2013-2-13,43.0,32.1,25.0,34.0,27.1,23.9,100,82,60,29.95,29.68,14,2,15,0.05
2013-2-14,43.0,36.2,30.0,35.0,31.1,27.4,100,83,62,29.97,29.74,16,5,16,0.00
2013-2-15,47.0,40.7,35.0,35.8,30.4,25.1,99,68,46,29.99,29.90,28,7,30,0.05
2013-2-16,36.0,31.9,27.0,36.0,21.6,11.7,100,67,47,29.99,29.83,19,6,19,0.00
2013-2-17,28.0,23.9,18.0,15.6,10.6,1.9,73,57,38,30.12,29.80,47,10,47,0.00
2013-2-18,36.0,25.6,16.0,15.4,10.1,5.9,67,53,37,30.29,30.09,25,7,25,0.00
2013-2-19,39.0,34.6,29.0,38.0,28.0,14.0,100,78,40,30.09,29.67,36,6,36,0.20
2013-2-20,31.0,26.8,23.0,23.7,16.0,11.6,74,63,55,30.06,29.79,38,13,38,0.00
2013-2-21,34.0,26.6,23.0,19.0,16.1,13.7,77,64,51,30.34,30.03,35,11,35,0.00
2013-2-22,35.0,29.0,22.0,28.5,22.0,16.8,86,75,63,30.37,30.18,17,5,17,0.00
2013-2-23,41.0,36.8,34.0,40.0,35.3,28.5,100,95,77,30.19,29.83,12,4,13,0.01
2013-2-24,39.0,35.8,32.0,37.2,32.2,20.0,100,88,54,30.05,29.80,28,6,30,0.00
2013-2-25,45.0,36.0,30.0,29.2,25.6,22.3,78,66,47,30.22,30.05,19,5,19,0.00
2013-2-26,43.0,35.4,28.0,36.0,30.0,24.9,98,82,58,30.23,29.74,29,7,31,0.28
2013-2-27,43.0,39.2,36.0,41.5,38.4,35.8,100,97,87,29.75,29.53,26,8,31,0.29
2013-2-28,43.0,38.3,35.0,39.0,35.1,29.0,100,89,60,29.67,29.57,22,5,22,0.03
2013-3-1,40.0,36.9,33.0,34.9,29.8,23.2,92,76,61,29.86,29.66,23,7,24,0.00
2013-3-2,35.0,31.6,29.0,24.6,23.0,21.4,79,70,59,29.86,29.77,22,8,22,0.00
2013-3-3,34.0,28.6,26.0,22.5,19.5,17.4,79,69,55,29.85,29.75,31,11,31,0.00
2013-3-4,36.0,30.2,26.0,24.0,20.1,15.1,79,66,56,30.01,29.84,35,13,35,0.00
2013-3-5,42.0,34.5,30.0,27.5,24.9,22.4,78,68,53,30.06,29.89,19,6,20,0.00
2013-3-6,45.0,38.4,36.0,32.3,28.9,26.8,74,68,56,30.02,29.81,34,9,34,0.00
2013-3-7,42.0,38.5,33.0,28.2,25.2,21.8,66,59,49,30.16,30.02,28,8,28,0.00
2013-3-8,43.0,36.1,30.0,27.0,24.4,21.9,84,63,51,30.32,30.13,37,9,39,0.00
2013-3-9,58.0,41.7,28.0,28.5,25.0,21.6,86,54,26,30.36,30.24,11,3,11,0.00
2013-3-10,60.0,42.7,32.0,32.0,26.0,22.9,77,55,28,30.29,30.17,24,5,24,0.00
2013-3-11,58.0,50.7,42.0,49.9,37.8,28.0,83,63,36,30.20,29.86,36,8,42,0.00
2013-3-12,56.0,49.7,41.0,53.9,44.8,29.8,99,84,66,29.93,29.74,37,11,37,0.43
2013-3-13,44.0,38.8,31.0,32.2,28.1,16.4,87,66,41,29.97,29.82,41,7,43,0.00
2013-3-14,39.0,32.2,27.0,21.8,15.4,9.7,74,51,32,30.04,29.93,45,15,50,0.00
2013-3-15,46.0,36.8,26.0,32.1,24.3,14.5,71,60,51,30.04,29.72,29,7,33,0.00
2013-3-16,41.0,33.7,30.0,33.0,28.5,21.2,100,83,58,29.93,29.73,22,4,23,0.18
2013-3-17,32.0,30.6,30.0,31.2,28.8,27.2,97,93,90,29.97,29.92,9,3,9,0.00
2013-3-20,42.0,35.5,31.0,22.4,19.9,15.2,69,53,36,29.89,29.77,35,10,40,0.00
2013-3-21,33.0,29.4,25.0,22.3,15.9,10.2,69,57,41,29.83,29.69,27,8,29,0.00
2013-3-22,38.0,31.9,27.0,23.7,21.0,17.7,84,65,48,29.94,29.76,35,11,36,0.00
2013-3-23,43.0,35.8,31.0,23.3,21.2,18.5,70,56,40,29.98,29.89,33,10,33,0.00
2013-3-24,46.0,36.6,31.0,24.3,21.5,18.2,69,55,34,29.97,29.63,19,4,19,0.00
2013-3-25,39.0,36.3,33.0,36.0,31.7,23.3,100,85,53,29.67,29.52,19,6,20,0.12
2013-3-26,49.0,40.5,35.0,36.0,32.0,27.3,100,74,46,29.94,29.66,39,6,40,0.00
2013-3-27,47.0,40.0,36.0,34.9,31.2,25.3,85,72,44,30.04,29.91,35,8,38,0.00
2013-3-28,46.0,40.9,36.0,33.8,29.8,25.5,88,66,46,30.18,30.01,23,6,24,0.00
2013-3-29,48.0,42.0,39.0,34.5,30.2,27.0,74,63,53,30.20,30.12,25,8,25,0.00
2013-3-31,52.0,44.3,34.0,46.7,38.4,24.9,100,81,47,30.04,29.70,31,4,31,0.16
2013-4-1,51.0,43.7,34.0,46.5,31.6,12.5,100,68,28,29.95,29.67,40,11,41,0.02
2013-4-2,41.0,34.3,30.0,19.0,14.4,10.9,63,44,31,30.12,29.94,35,10,37,0.00
2013-4-3,42.0,33.7,30.0,19.3,14.1,10.1,59,45,30,30.36,30.10,37,9,37,0.00
2013-4-4,53.0,39.9,27.0,22.0,18.1,14.6,69,43,26,30.39,30.00,22,5,24,0.00
2013-4-5,58.0,45.7,35.0,26.1,21.3,16.5,64,40,22,30.08,29.81,37,8,37,0.00
2013-4-6,53.0,42.0,32.0,23.2,16.8,12.2,58,38,20,30.32,30.06,18,6,19,0.00
2013-4-7,64.0,50.8,43.0,42.9,29.5,17.8,59,44,32,30.21,29.91,29,9,31,0.00
2013-4-8,75.0,61.9,44.0,50.1,43.7,38.0,88,54,30,30.09,29.91,22,5,22,0.00
2013-4-9,81.0,71.0,61.0,52.5,46.5,37.9,66,44,26,30.04,29.86,32,8,32,0.00
2013-4-10,83.0,69.8,61.0,64.2,55.2,50.7,98,61,43,29.94,29.78,46,6,47,0.49
2013-4-11,62.0,54.2,50.0,61.0,51.2,46.0,100,90,80,29.96,29.80,20,7,23,0.00
2013-4-12,50.0,47.3,44.0,47.9,45.4,42.2,98,93,87,29.89,29.66,26,6,26,0.38
2013-4-13,53.0,48.4,44.0,47.5,36.7,33.1,98,65,50,29.97,29.80,27,6,30,0.00
2013-4-14,58.0,48.4,41.0,37.1,33.1,25.5,71,56,37,30.16,29.95,35,7,37,0.00
2013-4-15,66.0,54.8,47.0,47.5,39.1,30.7,71,56,49,30.27,30.14,24,6,26,0.00
2013-4-16,58.0,55.0,54.0,51.9,47.6,43.9,82,76,67,30.27,30.21,27,7,27,0.00
2013-4-18,63.0,60.3,58.0,58.4,53.0,36.6,90,78,43,30.22,29.96,27,8,27,0.00
2013-4-19,74.0,64.0,51.0,65.6,57.8,44.1,97,81,69,29.99,29.52,47,12,50,0.61
2013-4-20,52.0,46.9,39.0,45.4,30.5,20.6,81,54,37,30.40,29.76,37,12,37,0.00
2013-4-21,53.0,40.3,33.0,28.4,22.3,19.7,67,49,31,30.59,30.37,16,4,26,0.00
2013-4-22,57.0,47.9,39.0,33.9,29.7,22.4,79,51,31,30.59,30.42,22,6,25,0.00
2013-4-23,63.0,50.3,41.0,44.8,37.8,31.0,78,64,40,30.44,30.08,18,5,18,0.00
2013-4-24,72.0,52.8,43.0,60.8,46.5,34.7,98,81,48,30.09,29.73,47,5,48,0.29
2013-4-25,60.0,50.1,42.0,40.7,31.9,26.5,74,52,31,30.29,30.02,30,8,32,0.00
2013-4-26,62.0,52.7,44.0,37.9,30.1,21.9,76,45,22,30.45,30.27,21,6,22,0.00
2013-4-27,71.0,56.3,40.0,42.1,33.5,27.2,81,46,24,30.43,30.25,13,3,14,0.00
2013-4-28,69.0,54.7,45.0,46.6,40.8,34.5,83,62,31,30.27,30.13,28,5,30,0.00
2013-4-29,59.0,56.2,52.0,55.8,49.4,35.5,94,79,47,30.15,30.07,20,6,22,0.03
2013-4-30,69.0,60.2,55.0,54.1,50.1,28.0,96,72,42,30.33,30.14,22,6,22,0.00
2013-5-1,73.0,57.9,46.0,41.9,31.2,24.6,66,38,18,30.44,30.31,17,4,17,0.00
2013-5-2,75.0,62.3,46.0,47.7,42.9,37.9,90,53,28,30.45,30.30,24,4,25,0.00
2013-5-3,72.0,61.4,52.0,48.4,39.9,26.9,82,48,22,30.40,30.27,21,6,22,0.00
2013-5-4,57.0,49.0,44.0,41.4,38.2,35.0,83,67,45,30.34,30.29,6,2,7,0.00
2013-5-6,73.0,67.7,62.0,53.9,51.0,44.7,74,56,44,30.19,30.08,20,5,20,0.00
2013-5-7,76.0,65.5,54.0,58.7,53.4,48.2,94,68,41,30.13,30.01,30,6,30,0.00
2013-5-8,64.0,61.7,54.0,62.2,58.4,54.0,100,89,79,30.06,29.91,19,5,19,0.56
2013-5-9,68.0,59.7,52.0,60.4,56.1,52.0,100,89,63,29.99,29.90,19,4,20,0.00
2013-5-10,77.0,64.9,56.0,63.1,59.4,53.4,100,85,48,30.02,29.84,31,4,31,0.15
2013-5-11,69.0,64.1,60.0,65.2,60.0,50.2,100,87,62,29.88,29.71,30,7,30,0.28
2013-5-12,60.0,54.4,45.0,53.1,41.2,26.5,85,62,32,29.98,29.73,46,10,46,0.00
2013-5-13,53.0,45.8,41.0,34.5,28.3,23.4,69,51,34,30.14,29.96,29,8,29,0.00
2013-5-14,61.0,48.9,35.0,40.4,29.6,20.8,86,51,25,30.18,30.01,24,5,24,0.00
2013-5-15,75.0,58.4,51.0,60.0,47.1,40.3,83,66,55,30.04,29.66,23,5,24,0.00
2013-5-16,83.0,70.2,57.0,62.6,50.1,37.0,100,58,20,29.95,29.75,25,6,25,0.00
2013-5-17,73.0,63.7,54.0,43.8,41.2,36.3,64,45,29,30.21,29.93,18,5,18,0.00
2013-5-18,68.0,62.1,57.0,57.3,49.1,42.8,79,63,51,30.25,30.19,16,5,18,0.00
2013-5-19,65.0,61.4,60.0,61.0,57.5,54.5,93,87,79,30.24,30.13,18,5,18,0.00
2013-5-20,80.0,69.8,61.0,66.7,63.4,59.0,95,81,61,30.14,29.97,15,4,16,0.00
2013-5-21,89.0,76.8,63.0,71.3,66.8,62.4,100,74,45,29.99,29.82,23,5,23,0.00
2013-5-22,90.0,76.6,67.0,72.1,67.6,59.2,100,77,38,29.95,29.80,43,5,43,0.22
2013-5-23,77.0,69.3,62.0,68.3,65.2,59.0,100,87,67,29.89,29.74,27,5,28,0.44
2013-5-24,63.0,51.1,44.0,63.0,47.1,39.1,100,87,66,30.11,29.72,30,9,32,0.12
2013-5-25,60.0,51.4,44.0,41.2,35.8,31.2,81,57,36,30.11,30.04,40,12,42,0.00
2013-5-26,68.0,53.4,46.0,38.2,35.7,31.0,71,54,26,30.24,30.07,33,8,36,0.00
2013-5-27,71.0,58.5,42.0,47.0,40.0,28.5,93,55,25,30.28,30.14,17,4,17,0.00
2013-5-28,61.0,57.2,53.0,61.0,54.8,46.1,100,92,60,30.20,30.07,12,3,12,0.26
2013-5-29,87.0,67.7,59.0,68.6,62.2,59.0,100,86,45,30.10,30.02,23,4,24,0.06
2013-5-30,89.0,77.8,63.0,67.7,64.1,58.2,98,66,40,30.18,30.09,18,4,18,0.00
2013-5-31,92.0,79.3,67.0,71.0,64.6,56.2,97,65,35,30.15,30.00,21,4,21,0.00
2013-6-1,90.0,79.7,66.0,68.4,65.1,60.6,91,63,43,30.03,29.88,24,5,24,0.00
2013-6-2,84.0,78.3,74.0,68.4,66.6,61.5,81,68,49,29.89,29.79,31,7,31,0.00
2013-6-3,77.0,71.1,61.0,68.5,58.9,44.1,85,66,51,30.00,29.83,20,6,22,0.00
2013-6-4,74.0,63.2,52.0,48.5,43.2,38.9,74,50,29,30.15,29.98,20,6,22,0.00
2013-6-5,78.0,62.3,51.0,50.8,45.4,40.8,76,56,32,30.23,30.06,16,4,16,0.00
2013-6-6,68.0,64.3,61.0,60.7,55.2,47.2,94,74,49,30.09,29.88,25,6,25,0.20
2013-6-7,66.0,64.1,62.0,64.4,62.4,60.3,100,95,82,29.90,29.70,22,5,22,0.15
2013-6-8,74.0,66.4,62.0,63.1,60.9,56.7,100,84,59,30.12,29.72,19,5,19,0.00
2013-6-9,81.0,65.0,54.0,61.1,56.7,52.0,100,78,39,30.21,30.10,14,3,15,0.00
2013-6-10,70.0,67.3,64.0,68.5,64.9,59.0,100,93,72,30.14,29.75,21,6,21,1.88
2013-6-11,76.0,69.8,65.0,68.9,65.3,59.9,100,87,66,29.82,29.71,33,7,33,0.06
2013-6-12,80.0,68.8,64.0,62.3,59.4,54.1,89,74,43,29.89,29.80,20,4,20,0.00
2013-6-13,76.0,67.0,59.0,69.9,63.1,56.9,100,88,68,29.83,29.45,37,7,39,0.81
2013-6-14,73.0,61.7,58.0,58.4,55.9,53.2,99,83,53,29.86,29.65,24,6,24,0.00
2013-6-16,79.0,71.2,60.0,66.3,61.6,53.1,95,73,55,30.00,29.82,30,6,30,0.00
2013-6-17,86.0,74.5,66.0,67.2,62.1,53.4,96,69,35,29.95,29.87,22,5,24,0.00
2013-6-18,79.0,69.9,62.0,67.4,62.2,57.0,94,78,59,29.95,29.84,18,4,18,0.00
2013-6-19,76.0,65.4,58.0,58.6,52.3,42.1,83,65,34,30.19,29.95,15,4,16,0.00
2013-6-20,81.0,68.9,54.0,62.0,55.4,49.6,93,64,39,30.27,30.18,17,5,17,0.00
2013-6-21,83.0,73.9,61.0,62.7,59.9,56.4,94,63,47,30.31,30.23,18,5,19,0.00
2013-6-22,85.0,74.9,62.0,68.5,62.9,56.0,92,68,50,30.25,30.11,22,5,22,0.00
2013-6-23,89.0,77.1,69.0,70.7,67.5,57.7,94,74,37,30.20,30.06,19,4,19,0.00
2013-6-24,88.0,76.5,69.0,72.9,68.3,63.5,97,77,55,30.14,30.02,36,4,36,0.28
2013-6-25,88.0,75.9,67.0,72.7,69.0,65.8,99,81,52,30.04,29.88,38,5,38,0.16
2013-6-26,81.0,71.4,67.0,70.2,67.9,66.4,99,90,65,29.92,29.83,11,4,12,0.00
2013-6-27,85.0,72.9,66.0,72.6,69.1,66.0,100,89,55,29.85,29.55,19,3,20,0.98
2013-6-28,81.0,72.0,68.0,70.0,68.4,65.8,100,89,63,29.66,29.49,14,4,16,0.00